Time;durP1;ratioP1;P1;durP2;ratioP2;P2;SDS_P1;SDS_P2;PMS_P1;PMS_P2;Temp;Humidity;BMP_temperature;BMP_pressure;BME280_temperature;BME280_humidity;BME280_pressure;Samples;Min_cycle;Max_cycle;Signal;HPM_P1;HPM_P2
2021/08/10 00:00:56;;;;;;;;;;;;;;;;;;;;;
2021/08/10 00:03:53;;;;;;;2.88;1.70;;;;;;;16.59;79.21;93065.56;4773206;30;20076;-92
2021/08/10 00:06:44;;;;;;;;;;;;;;;;;;;;;
2021/08/10 00:09:56;;;;;;;3.67;1.52;;;;;;;16.68;80.11;93084.06;4772885;30;20056;-92
2021/08/10 00:12:52;;;;;;;3.72;1.83;;;;;;;16.81;80.13;93115.69;4744789;30;20048;-92
2021/08/10 00:15:29;;;;;;;2.22;1.50;;;;;;;16.46;80.18;93061.97;4755696;30;20086;-93
2021/08/10 00:18:23;;;;;;;4.65;1.42;;;;;;;16.42;80.30;93059.16;4774546;30;20058;-92
2021/08/10 00:21:35;;;;;;;1.88;1.33;;;;;;;16.65;80.59;93093.41;4758891;30;20043;-92
2021/08/10 00:24:55;;;;;;;3.40;1.73;;;;;;;16.44;80.69;93064.16;4764238;30;20096;-92
2021/08/10 00:27:57;;;;;;;3.97;1.70;;;;;;;16.52;81.08;93087.16;4755421;30;20148;-93
2021/08/10 00:34:40;;;;;;;;;;;;;;;;;;;;;
2021/08/10 00:38:21;;;;;;;;;;;;;;;;;;;;;
2021/08/10 00:41:05;;;;;;;3.22;2.05;;;;;;;16.33;81.37;93068.94;4772846;30;20051;-92
2021/08/10 00:44:09;;;;;;;2.05;1.63;;;;;;;16.50;81.41;93099.13;4771063;30;20393;-93
2021/08/10 00:46:57;;;;;;;1.67;1.15;;;;;;;16.26;81.64;93062.53;4754758;30;20141;-93
2021/08/10 00:50:09;;;;;;;;;;;;;;;;;;;;;
2021/08/10 00:52:56;;;;;;;;;;;;;;;;;;;;;
2021/08/10 00:55:41;;;;;;;3.17;1.60;;;;;;;16.35;81.51;93076.56;4772527;30;20047;-93
2021/08/10 00:58:32;;;;;;;2.55;1.15;;;;;;;16.50;81.50;93093.84;4745047;30;20387;-93
2021/08/10 01:01:42;;;;;;;2.17;1.42;;;;;;;16.42;81.29;93077.66;4760982;30;20059;-92
2021/08/10 01:04:35;;;;;;;;;;;;;;;;;;;;;
2021/08/10 01:07:58;;;;;;;2.58;1.30;;;;;;;16.18;81.93;93048.22;4764634;30;20138;-93
2021/08/10 01:10:49;;;;;;;2.38;1.40;;;;;;;16.40;82.31;93090.41;4717170;30;20057;-93
2021/08/10 01:13:42;;;;;;;4.15;2.47;;;;;;;16.28;82.34;93061.16;4755920;30;20537;-92
2021/08/10 01:16:44;;;;;;;2.30;1.60;;;;;;;16.51;81.96;93100.69;4757669;30;20138;-94
2021/08/10 01:19:49;;;;;;;5.40;1.50;;;;;;;16.38;81.86;93081.22;4756943;30;20138;-92
2021/08/10 01:22:43;;;;;;;;;;;;;;;;;;;;;
2021/08/10 01:25:53;;;;;;;2.03;1.40;;;;;;;16.19;81.34;93049.81;4768732;30;20044;-92
2021/08/10 01:29:00;;;;;;;2.70;1.77;;;;;;;16.43;81.48;93084.50;4755239;30;20048;-93
2021/08/10 01:32:15;;;;;;;1.98;1.58;;;;;;;16.32;81.50;93080.56;4739918;30;20074;-92
2021/08/10 01:35:21;;;;;;;2.15;1.70;;;;;;;16.36;81.64;93083.41;4770515;30;20051;-92
2021/08/10 01:38:05;;;;;;;;;;;;;;;16.38;81.60;93092.56;4758070;30;20131;-93
2021/08/10 01:41:16;;;;;;;1.85;1.35;;;;;;;16.00;81.66;93040.25;4771585;30;19922;-93
2021/08/10 01:44:45;;;;;;;1.60;1.08;;;;;;;16.05;81.35;93046.47;4772200;30;20051;-92
2021/08/10 01:48:00;;;;;;;2.20;1.45;;;;;;;16.01;81.49;93046.34;4774070;30;20529;-93
2021/08/10 01:51:02;;;;;;;2.30;1.55;;;;;;;16.29;81.37;93097.06;4756951;30;20088;-93
2021/08/10 01:54:12;;;;;;;;;;;;;;;;;;;;;
2021/08/10 01:56:58;;;;;;;2.08;1.48;;;;;;;16.00;81.06;93061.38;4769801;30;20402;-93
2021/08/10 02:00:18;;;;;;;;;;;;;;;;;;;;;
2021/08/10 02:03:07;;;;;;;1.30;1.08;;;;;;;15.93;81.25;93062.91;4764449;30;20051;-94
2021/08/10 02:06:20;;;;;;;3.72;1.42;;;;;;;16.02;81.38;93069.00;4749086;30;20096;-93
2021/08/10 02:09:12;;;;;;;1.15;1.00;;;;;;;15.92;81.39;93059.50;4737607;30;20109;-93
2021/08/10 02:15:35;;;;;;;2.63;1.63;;;;;;;15.88;81.76;93058.53;4767585;30;20091;-93
2021/08/10 02:21:40;;;;;;;2.67;1.63;;;;;;;15.91;81.12;93059.78;4752647;30;20086;-93
2021/08/10 02:24:51;;;;;;;;;;;;;;;;;;;;;
2021/08/10 02:27:55;;;;;;;1.92;1.35;;;;;;;16.00;81.31;93065.88;4753384;30;20040;-93
2021/08/10 02:30:34;;;;;;;2.45;1.70;;;;;;;15.93;81.36;93060.28;4736072;30;20055;-93
2021/08/10 02:33:10;;;;;;;1.77;1.38;;;;;;;15.91;80.79;93057.16;4737902;30;20146;-93
2021/08/10 02:36:08;;;;;;;2.22;1.30;;;;;;;15.98;80.58;93079.38;4755121;30;20501;-93
2021/08/10 02:39:12;;;;;;;;;;;;;;;;;;;;;
2021/08/10 02:41:50;;;;;;;1.58;1.30;;;;;;;15.95;81.70;93080.00;4753306;30;20105;-91
2021/08/10 02:44:48;;;;;;;1.67;1.17;;;;;;;15.96;81.80;93078.94;4739532;30;20051;-92
2021/08/10 02:47:30;;;;;;;3.05;1.42;;;;;;;15.71;82.21;93047.91;4735522;30;20056;-93
2021/08/10 02:50:15;;;;;;;3.40;1.55;;;;;;;15.91;82.27;93083.56;4722516;30;20052;-92
2021/08/10 02:52:58;;;;;;;2.75;1.77;;;;;;;15.66;82.26;93051.41;4725826;30;20044;-93
2021/08/10 02:55:46;;;;;;;1.55;1.20;;;;;;;15.58;82.46;93039.75;4739699;30;20063;-93
2021/08/10 02:58:31;;;;;;;1.73;1.13;;;;;;;15.81;82.55;93074.81;4742779;30;20292;-92
2021/08/10 03:01:38;;;;;;;2.55;1.42;;;;;;;15.52;82.47;93040.19;4756408;30;20071;-93
2021/08/10 03:04:40;;;;;;;4.43;1.25;;;;;;;15.83;82.47;93085.09;4724505;30;20048;-92
2021/08/10 03:11:02;;;;;;;1.80;1.27;;;;;;;15.46;82.32;93042.16;4754020;30;20067;-92
2021/08/10 03:13:48;;;;;;;1.83;1.33;;;;;;;15.57;82.34;93064.56;4738922;30;20048;-92
2021/08/10 03:16:47;;;;;;;;;;;;;;;;;;;;;
2021/08/10 03:19:45;;;;;;;2.22;1.50;;;;;;;15.44;81.96;93041.69;4754636;30;20047;-92
2021/08/10 03:22:41;;;;;;;1.38;1.27;;;;;;;15.43;81.86;93042.78;4728011;30;20055;-93
2021/08/10 03:25:50;;;;;;;1.85;1.33;;;;;;;15.45;81.99;93045.13;4743582;30;20048;-93
2021/08/10 03:28:43;;;;;;;2.45;1.80;;;;;;;15.77;82.00;93102.13;4732396;30;20059;-92
2021/08/10 03:31:36;;;;;;;6.32;2.45;;;;;;;15.45;82.08;93056.44;4741176;30;20043;-93
2021/08/10 03:34:28;;;;;;;2.20;1.60;;;;;;;15.73;81.92;93101.94;4736936;30;20052;-91
2021/08/10 03:37:23;;;;;;;;;;;;;;;;;;;;;
2021/08/10 03:40:00;;;;;;;3.08;1.80;;;;;;;15.54;81.57;93070.47;4737336;30;20051;-92
2021/08/10 03:42:41;;;;;;;2.75;1.55;;;;;;;15.51;81.46;93070.28;4732175;30;20391;-92
2021/08/10 03:45:26;;;;;;;1.48;1.10;;;;;;;15.38;81.04;93056.09;4741047;30;20060;-94
2021/08/10 03:48:17;;;;;;;2.03;1.23;;;;;;;15.60;80.98;93085.09;4741125;30;20053;-92
2021/08/10 03:51:19;;;;;;;;;;;;;;;;;;;;;
2021/08/10 03:53:49;;;;;;;2.58;1.48;;;;;;;15.50;81.15;93072.13;4755275;30;20089;-93
2021/08/10 03:56:40;;;;;;;2.90;1.70;;;;;;;15.42;80.96;93072.84;4741923;30;20039;-93
2021/08/10 03:59:31;;;;;;;2.20;1.38;;;;;;;15.48;81.31;93087.50;4751240;30;20040;-92
2021/08/10 04:02:28;;;;;;;1.33;1.08;;;;;;;15.28;81.31;93051.81;4747666;30;20138;-91
2021/08/10 04:05:30;;;;;;;1.75;1.45;;;;;;;15.26;81.33;93063.75;4769996;30;20075;-93
2021/08/10 04:08:17;;;;;;;3.20;1.20;;;;;;;15.55;81.39;93106.31;4770461;30;20072;-92
2021/08/10 04:11:14;;;;;;;4.03;2.15;;;;;;;15.22;81.26;93053.06;4772083;30;20063;-92
2021/08/10 04:14:06;;;;;;;1.30;1.10;;;;;;;15.41;81.19;93081.88;4733498;30;20043;-92
2021/08/10 04:16:57;;;;;;;1.65;0.98;;;;;;;15.23;81.26;93061.75;4773973;30;20100;-93
2021/08/10 04:20:00;;;;;;;2.83;1.70;;;;;;;15.32;81.36;93073.13;4772705;30;20097;-91
2021/08/10 04:22:41;;;;;;;1.42;1.02;;;;;;;15.39;81.30;93079.53;4745038;30;20078;-92
2021/08/10 04:25:26;;;;;;;1.33;1.08;;;;;;;15.19;81.04;93054.41;4758625;30;20134;-93
2021/08/10 04:28:15;;;;;;;3.70;1.45;;;;;;;15.41;81.29;93072.09;4760637;30;20045;-92
2021/08/10 04:30:59;;;;;;;1.38;1.10;;;;;;;15.27;80.78;93039.75;4760194;30;20054;-92
2021/08/10 04:33:54;;;;;;;1.70;1.30;;;;;;;15.32;80.90;93041.47;4748735;30;20146;-93
2021/08/10 04:36:59;;;;;;;4.07;1.33;;;;;;;15.39;80.70;93047.88;4769967;30;20044;-92
2021/08/10 04:40:13;;;;;;;1.60;1.23;;;;;;;15.74;81.09;93100.09;4726619;30;20062;-92
2021/08/10 04:43:21;;;;;;;3.03;1.75;;;;;;;15.43;80.89;93045.41;4763830;30;20093;-93
2021/08/10 04:46:00;;;;;;;1.98;1.25;;;;;;;15.79;81.37;93097.31;4754556;30;20058;-93
2021/08/10 04:49:18;;;;;;;;;;;;;;;;;;;;;
2021/08/10 04:52:02;;;;;;;;;;;;;;;;;;;;;
2021/08/10 04:54:56;;;;;;;;;;;;;;;15.96;80.67;93091.31;4765572;30;20043;-92
2021/08/10 04:58:07;;;;;;;3.95;1.23;;;;;;;15.78;80.59;93059.59;4775807;30;19926;-92
2021/08/10 05:04:25;;;;;;;;;;;;;;;;;;;;;
2021/08/10 05:06:59;;;;;;;2.53;1.88;;;;;;;15.95;79.94;93058.88;4772242;30;20047;-93
2021/08/10 05:10:02;;;;;;;3.40;1.77;;;;;;;15.92;79.58;93041.00;4788606;30;20042;-92
2021/08/10 05:13:34;;;;;;;;;;;;;;;;;;;;;
2021/08/10 05:16:36;;;;;;;5.45;1.73;;;;;;;16.39;79.69;93073.00;4784028;30;20046;-93
2021/08/10 05:19:25;;;;;;;;;;;;;;;;;;;;;
2021/08/10 05:22:20;;;;;;;1.58;1.17;;;;;;;16.50;78.94;93056.84;4774144;30;20047;-93
2021/08/10 05:25:16;;;;;;;2.10;1.67;;;;;;;16.73;78.39;93078.63;4779986;30;20139;-92
2021/08/10 05:28:16;;;;;;;;;;;;;;;;;;;;;
2021/08/10 05:31:05;;;;;;;1.75;1.33;;;;;;;17.00;78.07;93083.69;4743101;30;20123;-92
2021/08/10 05:34:00;;;;;;;1.77;1.42;;;;;;;17.21;77.62;93102.34;4754011;30;20071;-94
2021/08/10 05:40:20;;;;;;;3.60;2.42;;;;;;;17.21;77.27;93062.66;4784795;30;20051;-92
2021/08/10 05:46:18;;;;;;;;;;;;;;;;;;;;;
2021/08/10 05:49:12;;;;;;;2.13;1.23;;;;;;;17.71;76.24;93063.97;4768224;30;20072;-91
2021/08/10 05:52:48;;;;;;;2.88;1.83;;;;;;;18.26;75.76;93112.72;4746280;30;20052;-93
2021/08/10 05:55:30;;;;;;;2.15;1.70;;;;;;;18.12;75.42;93064.47;4761355;30;20046;-92
2021/08/10 06:02:08;;;;;;;;;;;;;;;;;;;;;
2021/08/10 06:09:05;;;;;;;3.30;1.70;;;;;;;19.34;73.30;93106.94;4827672;27;8328981;-80
2021/08/10 06:11:32;;;;;;;3.10;1.75;;;;;;;19.58;72.48;93106.25;5086504;28;20032;-79
2021/08/10 06:13:58;;;;;;;5.85;1.92;;;;;;;20.63;68.73;93097.94;5060716;28;20452;-80
2021/08/10 06:16:24;;;;;;;2.80;2.03;;;;;;;23.30;59.56;93107.06;5074102;28;20082;-81
2021/08/10 06:18:53;;;;;;;3.30;2.00;;;;;;;25.52;53.06;93102.69;5076695;28;20075;-78
2021/08/10 06:21:23;;;;;;;2.65;1.75;;;;;;;27.11;48.10;93110.28;5060567;28;20569;-81
2021/08/10 06:23:48;;;;;;;3.38;1.90;;;;;;;28.40;45.30;93110.81;5073964;28;20132;-80
2021/08/10 06:26:15;;;;;;;2.83;1.85;;;;;;;29.54;42.26;93109.91;5082641;28;20032;-80
2021/08/10 06:28:44;;;;;;;3.15;1.80;;;;;;;29.93;42.66;93114.44;5064230;28;21863;-80
2021/08/10 06:31:10;;;;;;;4.63;2.55;;;;;;;29.62;42.51;93111.44;5085607;28;20485;-82
2021/08/10 06:33:37;;;;;;;4.50;2.53;;;;;;;30.45;41.36;93106.44;5085265;28;20081;-79
2021/08/10 06:36:03;;;;;;;3.70;2.15;;;;;;;30.12;41.46;93104.31;5086172;28;20040;-79
2021/08/10 06:38:31;;;;;;;6.70;3.15;;;;;;;29.76;42.37;93105.25;5078336;28;20017;-80
2021/08/10 06:40:58;;;;;;;3.38;2.28;;;;;;;30.29;41.53;93109.63;5082680;28;20108;-81
2021/08/10 06:43:23;;;;;;;3.55;2.15;;;;;;;29.96;42.50;93113.63;5083848;28;20461;-79
2021/08/10 06:46:09;;;;;;;4.47;2.28;;;;;;;31.09;39.59;93104.38;5081287;28;20136;-80
2021/08/10 06:48:35;;;;;;;4.82;3.03;;;;;;;30.71;40.93;93107.00;5069420;28;20468;-79
2021/08/10 06:51:01;;;;;;;5.07;2.25;;;;;;;31.40;39.57;93107.16;5088399;28;20410;-80
2021/08/10 06:53:29;;;;;;;4.32;2.08;;;;;;;32.00;37.75;93100.31;5088559;28;20032;-80
2021/08/10 06:55:55;;;;;;;5.65;2.45;;;;;;;32.33;36.99;93101.38;5087654;28;20396;-80
2021/08/10 06:58:21;;;;;;;3.60;2.22;;;;;;;32.10;37.82;93104.81;5070486;28;20036;-80
2021/08/10 07:00:46;;;;;;;3.78;2.00;;;;;;;29.82;43.04;93103.69;5071816;28;20493;-81
2021/08/10 07:03:14;;;;;;;4.20;2.47;;;;;;;28.19;47.46;93101.56;5087658;28;20391;-81
2021/08/10 07:05:40;;;;;;;3.55;2.17;;;;;;;26.41;52.52;93106.69;5074226;28;20089;-79
2021/08/10 07:08:06;;;;;;;3.80;2.17;;;;;;;25.43;55.34;93096.84;5065638;28;20049;-80
2021/08/10 07:10:37;;;;;;;3.03;1.90;;;;;;;23.23;61.76;93101.59;5055495;28;20163;-79
2021/08/10 07:13:03;;;;;;;4.95;2.47;;;;;;;23.08;62.34;93084.50;5046952;28;20524;-78
2021/08/10 07:15:29;;;;;;;2.63;1.80;;;;;;;23.11;63.02;93091.81;5057592;28;20036;-78
2021/08/10 07:17:55;;;;;;;2.15;1.30;;;;;;;22.61;64.53;93098.69;5064314;28;20044;-78
2021/08/10 07:20:24;;;;;;;3.28;1.90;;;;;;;22.82;64.97;93103.72;5044969;28;20510;-80
2021/08/10 07:22:49;;;;;;;3.85;2.35;;;;;;;22.49;65.92;93093.44;5045716;28;20037;-77
2021/08/10 07:25:15;;;;;;;4.22;1.85;;;;;;;22.66;65.33;93093.09;5047778;28;20039;-79
2021/08/10 07:27:42;;;;;;;2.97;2.00;;;;;;;22.72;63.91;93096.25;5051199;28;20067;-78
2021/08/10 07:30:09;;;;;;;1.77;1.13;;;;;;;22.91;64.99;93098.97;5010748;28;20037;-76
2021/08/10 07:32:37;;;;;;;4.18;1.95;;;;;;;22.90;64.48;93094.78;5037346;28;20075;-75
2021/08/10 07:35:04;;;;;;;3.55;1.92;;;;;;;22.89;65.45;93092.44;5054682;28;20379;-79
2021/08/10 07:37:30;;;;;;;4.38;2.13;;;;;;;22.63;66.05;93093.78;5038087;28;20034;-78
2021/08/10 07:39:58;;;;;;;2.67;1.63;;;;;;;22.08;68.26;93090.91;5033705;28;20073;-80
2021/08/10 07:42:26;;;;;;;2.33;1.35;;;;;;;22.13;68.21;93093.31;5022660;28;20025;-79
2021/08/10 07:44:54;;;;;;;5.35;2.28;;;;;;;22.27;66.71;93087.63;5040634;28;20037;-77
2021/08/10 07:47:20;;;;;;;1.88;1.52;;;;;;;22.08;67.34;93095.47;5049801;28;20516;-79
2021/08/10 07:49:48;;;;;;;2.92;1.80;;;;;;;22.41;67.08;93092.50;5051156;28;20442;-78
2021/08/10 07:52:14;;;;;;;4.13;1.95;;;;;;;22.51;65.56;93086.63;5045121;28;20044;-79
2021/08/10 07:54:39;;;;;;;3.53;2.00;;;;;;;22.56;65.03;93094.41;5054875;28;20030;-78
2021/08/10 07:57:06;;;;;;;3.33;1.90;;;;;;;22.59;66.10;93093.69;5038214;28;20045;-78
2021/08/10 07:59:32;;;;;;;1.50;1.13;;;;;;;22.22;67.20;93087.84;5042493;28;20037;-78
2021/08/10 08:01:58;;;;;;;2.53;1.70;;;;;;;22.29;66.75;93095.25;5020076;28;20040;-78
2021/08/10 08:04:24;;;;;;;2.17;1.48;;;;;;;21.88;68.27;93094.59;5050899;28;20041;-78
2021/08/10 08:06:50;;;;;;;3.35;2.10;;;;;;;21.85;68.15;93089.97;5036346;28;20506;-78
2021/08/10 08:09:16;;;;;;;3.92;2.05;;;;;;;22.22;67.16;93086.00;5040745;28;20204;-79
2021/08/10 08:11:42;;;;;;;3.53;1.90;;;;;;;22.21;67.71;93089.75;5056846;28;20132;-79
2021/08/10 08:14:08;;;;;;;3.50;1.83;;;;;;;22.01;68.12;93096.84;5055699;28;20067;-78
2021/08/10 08:16:34;;;;;;;2.35;1.50;;;;;;;22.44;66.91;93091.81;5053102;28;20048;-77
2021/08/10 08:19:00;;;;;;;2.35;1.60;;;;;;;22.19;67.42;93094.63;5071909;28;20048;-77
2021/08/10 08:21:26;;;;;;;5.00;2.10;;;;;;;22.57;67.02;93087.94;5054898;28;20071;-78
2021/08/10 08:23:54;;;;;;;2.72;1.63;;;;;;;22.64;65.61;93088.09;5055608;28;20037;-79
2021/08/10 08:26:21;;;;;;;2.92;2.05;;;;;;;22.73;66.07;93087.13;5050072;28;20025;-78
2021/08/10 08:28:48;;;;;;;1.80;1.23;;;;;;;22.93;63.15;93079.94;5019319;28;20051;-78
2021/08/10 08:31:15;;;;;;;2.40;1.98;;;;;;;22.97;63.88;93076.22;5020133;28;20037;-81
2021/08/10 08:33:42;;;;;;;3.65;2.00;;;;;;;23.06;64.11;93081.41;5042062;28;20037;-79
2021/08/10 08:36:09;;;;;;;3.80;2.25;;;;;;;22.91;62.59;93074.94;5056671;28;20132;-79
2021/08/10 08:38:35;;;;;;;2.72;1.67;;;;;;;22.90;64.76;93081.44;5056093;28;20032;-78
2021/08/10 08:41:01;;;;;;;9.52;1.65;;;;;;;22.98;63.12;93077.78;5056384;28;20398;-79
2021/08/10 08:43:27;;;;;;;5.35;1.60;;;;;;;23.02;62.39;93072.53;5038944;28;20041;-79
2021/08/10 08:45:54;;;;;;;2.20;1.58;;;;;;;23.17;63.17;93082.41;5056135;28;20043;-79
2021/08/10 08:48:25;;;;;;;3.47;2.22;;;;;;;23.13;61.59;93088.78;5055117;28;20040;-79
2021/08/10 08:50:51;;;;;;;2.53;1.70;;;;;;;22.98;61.50;93082.34;5055946;28;20093;-80
2021/08/10 08:53:18;;;;;;;2.63;1.55;;;;;;;23.06;63.56;93081.41;5054382;28;20028;-79
2021/08/10 08:55:47;;;;;;;6.30;1.85;;;;;;;23.40;61.20;93087.81;5055907;28;20032;-79
2021/08/10 08:58:15;;;;;;;2.92;1.42;;;;;;;23.52;59.36;93086.13;5067790;28;20405;-78
2021/08/10 09:00:42;;;;;;;2.53;1.65;;;;;;;22.88;62.39;93091.69;5019487;28;20118;-78
2021/08/10 09:03:07;;;;;;;3.45;1.83;;;;;;;23.17;63.63;93085.06;5026191;28;20048;-78
2021/08/10 09:05:35;;;;;;;3.60;1.98;;;;;;;23.28;62.35;93094.06;5055502;28;20391;-77
2021/08/10 09:08:27;;;;;;;2.60;1.85;;;;;;;23.27;62.66;93091.75;5034629;28;20056;-79
2021/08/10 09:10:56;;;;;;;2.17;1.58;;;;;;;23.24;56.54;93092.47;5051990;28;20052;-78
2021/08/10 09:13:21;;;;;;;4.20;1.77;;;;;;;23.52;59.43;93091.47;5044646;28;20025;-79
2021/08/10 09:15:48;;;;;;;4.03;2.03;;;;;;;23.39;58.46;93086.25;5036338;28;20195;-78
2021/08/10 09:18:22;;;;;;;4.05;2.10;;;;;;;23.62;59.44;93090.88;5036340;28;20245;-78
2021/08/10 09:21:22;;;;;;;3.00;1.80;;;;;;;23.46;62.07;93081.06;5053030;28;20043;-79
2021/08/10 09:23:59;;;;;;;2.92;1.75;;;;;;;23.47;60.89;93090.63;5046458;28;20037;-79
2021/08/10 09:26:31;;;;;;;3.67;1.85;;;;;;;23.64;61.08;93086.75;5052265;28;20124;-78
2021/08/10 09:29:00;;;;;;;2.63;1.63;;;;;;;23.72;58.94;93082.31;5051680;28;20140;-79
2021/08/10 09:31:34;;;;;;;5.85;2.67;;;;;;;23.87;57.62;93088.72;5034934;28;20123;-79
2021/08/10 09:34:18;;;;;;;2.83;1.70;;;;;;;23.92;54.99;93082.31;5039161;28;20379;-78
2021/08/10 09:36:45;;;;;;;3.42;1.60;;;;;;;23.78;58.87;93080.94;5028993;28;20029;-79
2021/08/10 09:39:11;;;;;;;3.03;1.90;;;;;;;23.86;57.55;93087.94;5035826;28;20028;-78
2021/08/10 09:41:39;;;;;;;10.20;2.10;;;;;;;23.67;61.55;93082.59;5035610;28;20179;-78
2021/08/10 09:44:06;;;;;;;1.67;1.27;;;;;;;23.69;59.54;93086.47;5052120;28;20047;-80
2021/08/10 09:46:31;;;;;;;3.38;1.75;;;;;;;23.96;56.88;93085.81;5051539;28;20147;-78
2021/08/10 09:48:57;;;;;;;3.53;2.15;;;;;;;23.88;58.53;93085.69;5053205;28;20056;-79
2021/08/10 09:51:29;;;;;;;2.88;1.88;;;;;;;24.03;57.97;93086.72;5027733;28;20045;-79
2021/08/10 09:53:59;;;;;;;3.42;1.88;;;;;;;24.33;59.23;93087.97;5029100;28;20041;-80
2021/08/10 09:56:40;;;;;;;3.22;1.88;;;;;;;24.50;57.26;93088.28;5053277;28;20433;-78
2021/08/10 09:59:06;;;;;;;3.97;1.92;;;;;;;24.73;57.54;93082.88;5052117;28;20031;-79
2021/08/10 10:01:37;;;;;;;2.35;1.60;;;;;;;24.56;57.37;93083.38;5035316;28;20090;-78
2021/08/10 10:04:17;;;;;;;2.92;1.15;;;;;;;24.56;55.94;93086.06;5052623;28;20509;-78
2021/08/10 10:06:51;;;;;;;3.83;2.10;;;;;;;24.56;56.10;93086.06;5049686;28;20044;-78
2021/08/10 10:09:17;;;;;;;3.33;1.90;;;;;;;24.72;57.19;93083.25;5053212;28;20049;-78
2021/08/10 10:11:46;;;;;;;4.07;2.33;;;;;;;24.55;57.65;93079.19;5030710;28;20480;-79
2021/08/10 10:14:12;;;;;;;2.80;1.92;;;;;;;24.50;55.85;93076.81;5011934;28;20061;-77
2021/08/10 10:16:44;;;;;;;3.45;2.22;;;;;;;24.59;55.49;93074.66;5009090;28;20049;-78
2021/08/10 10:19:12;;;;;;;1.60;1.33;;;;;;;24.68;54.05;93075.16;5028114;28;20029;-78
2021/08/10 10:21:41;;;;;;;2.67;1.90;;;;;;;24.54;55.85;93074.19;5030536;28;20061;-78
2021/08/10 10:24:07;;;;;;;3.92;2.22;;;;;;;24.56;56.44;93080.72;5016523;28;20041;-78
2021/08/10 10:26:40;;;;;;;3.45;1.60;;;;;;;24.60;55.19;93094.16;4994846;28;20056;-78
2021/08/10 10:29:06;;;;;;;2.63;1.42;;;;;;;24.25;56.80;93076.38;5010528;28;20041;-79
2021/08/10 10:31:32;;;;;;;2.58;1.73;;;;;;;24.51;54.11;93079.13;4994188;28;20971;-79
2021/08/10 10:33:59;;;;;;;4.25;2.33;;;;;;;24.76;56.02;93080.63;5018639;28;20083;-78
2021/08/10 10:36:25;;;;;;;3.70;2.28;;;;;;;24.91;54.08;93075.13;4996870;28;20036;-78
2021/08/10 10:38:54;;;;;;;18.20;2.38;;;;;;;24.26;56.35;93073.34;5030650;28;20399;-79
2021/08/10 10:41:24;;;;;;;4.97;1.92;;;;;;;24.83;55.89;93075.38;5029557;28;20048;-78
2021/08/10 10:43:53;;;;;;;4.18;2.03;;;;;;;24.69;54.81;93073.25;5043211;28;20056;-79
2021/08/10 10:46:30;;;;;;;4.30;2.17;;;;;;;24.93;53.64;93072.84;5033080;28;20030;-79
2021/08/10 10:48:56;;;;;;;3.10;2.00;;;;;;;24.78;54.69;93073.00;5033269;28;20049;-80
2021/08/10 10:51:28;;;;;;;3.63;1.92;;;;;;;24.60;53.63;93076.19;5033327;28;20036;-78
2021/08/10 10:54:27;;;;;;;3.67;1.88;;;;;;;25.17;55.56;93068.16;5034450;28;20049;-78
2021/08/10 10:57:00;;;;;;;3.63;1.83;;;;;;;25.14;55.88;93067.00;5036125;28;20039;-80
2021/08/10 10:59:37;;;;;;;4.07;2.05;;;;;;;25.20;53.53;93066.72;5037031;28;20037;-80
2021/08/10 11:02:16;;;;;;;4.03;2.00;;;;;;;24.87;55.23;93074.28;5037008;28;20437;-78
2021/08/10 11:05:10;;;;;;;2.80;1.50;;;;;;;25.48;52.74;93069.72;5035871;28;20048;-79
2021/08/10 11:07:46;;;;;;;4.75;2.63;;;;;;;25.81;52.64;93060.13;5042299;28;20057;-78
2021/08/10 11:10:33;;;;;;;4.22;1.88;;;;;;;26.03;51.14;93055.78;5055911;28;20041;-78
2021/08/10 11:12:59;;;;;;;2.13;1.50;;;;;;;26.15;51.63;93057.41;5022695;28;20129;-78
2021/08/10 11:15:46;;;;;;;3.42;2.08;;;;;;;26.29;53.25;93056.75;5037524;28;20094;-78
2021/08/10 11:18:12;;;;;;;2.58;1.75;;;;;;;26.22;52.46;93065.53;5055724;28;20036;-78
2021/08/10 11:20:43;;;;;;;3.03;1.83;;;;;;;26.36;51.93;93057.56;5055726;28;20090;-78
2021/08/10 11:23:23;;;;;;;3.63;2.17;;;;;;;26.63;50.35;93052.06;5055379;28;20045;-79
2021/08/10 11:25:59;;;;;;;3.92;1.95;;;;;;;26.96;47.11;93050.34;5049241;28;20037;-78
2021/08/10 11:28:35;;;;;;;1.98;1.35;;;;;;;26.34;48.91;93043.78;5034883;28;20040;-78
2021/08/10 11:31:09;;;;;;;2.80;1.70;;;;;;;26.05;50.29;93047.34;5016845;28;20092;-78
2021/08/10 11:33:38;;;;;;;1.70;1.23;;;;;;;25.89;50.48;93045.66;5001689;28;20095;-78
2021/08/10 11:36:23;;;;;;;3.95;2.42;;;;;;;24.76;51.27;93035.13;5035855;28;20028;-78
2021/08/10 11:38:52;;;;;;;2.67;1.42;;;;;;;24.85;52.10;93041.75;5049883;28;20086;-76
2021/08/10 11:41:31;;;;;;;2.30;1.65;;;;;;;25.24;52.37;93046.09;5048533;28;20037;-77
2021/08/10 11:43:59;;;;;;;2.75;1.65;;;;;;;25.38;49.41;93050.88;5055225;28;20090;-79
2021/08/10 11:46:26;;;;;;;4.05;2.17;;;;;;;25.32;49.67;93039.69;5033465;28;20494;-79
2021/08/10 11:48:56;;;;;;;2.40;1.33;;;;;;;25.54;50.14;93032.66;5055662;28;20072;-79
2021/08/10 11:51:34;;;;;;;2.97;1.75;;;;;;;25.58;50.69;93041.53;5055201;28;20067;-80
2021/08/10 11:54:11;;;;;;;11.95;2.45;;;;;;;25.29;51.25;93032.38;5054175;28;20063;-77
2021/08/10 11:57:00;;;;;;;2.05;1.35;;;;;;;25.50;51.09;93031.84;5049292;28;20030;-78
2021/08/10 11:59:26;;;;;;;2.03;1.38;;;;;;;25.09;48.81;93026.38;5028471;28;20053;-80
2021/08/10 12:01:59;;;;;;;4.15;1.73;;;;;;;25.44;49.51;93038.66;5036041;28;20033;-79
2021/08/10 12:04:37;;;;;;;2.67;1.77;;;;;;;25.80;52.52;93026.41;5035954;28;20045;-79
2021/08/10 12:07:07;;;;;;;2.28;1.63;;;;;;;25.87;50.50;93029.19;5037944;28;20049;-79
2021/08/10 12:09:39;;;;;;;1.85;1.40;;;;;;;26.04;49.36;93033.16;5055459;28;20529;-79
2021/08/10 12:12:07;;;;;;;4.20;1.95;;;;;;;26.46;50.24;93023.16;5054232;28;20503;-78
2021/08/10 12:14:33;;;;;;;2.40;1.42;;;;;;;26.45;48.31;93029.66;5035187;28;20025;-78
2021/08/10 12:17:05;;;;;;;5.32;2.67;;;;;;;26.13;48.99;93033.63;5054372;28;20060;-79
2021/08/10 12:19:38;;;;;;;3.25;2.08;;;;;;;25.41;49.19;93026.00;5035855;28;20052;-77
2021/08/10 12:22:07;;;;;;;2.88;1.65;;;;;;;25.61;49.60;93031.97;5035959;28;20036;-78
2021/08/10 12:24:37;;;;;;;3.60;1.77;;;;;;;25.79;47.11;93027.56;5048487;28;20021;-79
2021/08/10 12:27:03;;;;;;;2.95;1.73;;;;;;;25.95;47.27;93022.75;5035223;28;20041;-79
2021/08/10 12:29:33;;;;;;;1.88;1.23;;;;;;;26.18;48.64;93019.88;5033627;28;20029;-78
2021/08/10 12:32:00;;;;;;;1.25;1.08;;;;;;;25.48;48.97;93024.16;5033538;28;20041;-79
2021/08/10 12:34:30;;;;;;;2.13;1.45;;;;;;;25.90;47.35;93023.09;5000915;28;20050;-79
2021/08/10 12:36:57;;;;;;;2.17;1.45;;;;;;;25.93;48.96;93019.66;5034951;28;20033;-78
2021/08/10 12:39:23;;;;;;;2.97;1.95;;;;;;;26.01;48.25;93022.41;5033870;28;20030;-79
2021/08/10 12:41:49;;;;;;;1.95;1.35;;;;;;;25.85;48.32;93018.03;5034497;28;20041;-78
2021/08/10 12:44:15;;;;;;;1.50;1.13;;;;;;;25.76;47.52;93010.28;5030403;28;20053;-78
2021/08/10 12:46:41;;;;;;;3.63;1.98;;;;;;;26.05;48.06;93007.13;5052469;28;20048;-78
2021/08/10 12:49:16;;;;;;;2.25;1.58;;;;;;;26.27;48.70;93006.13;5015831;28;20064;-79
2021/08/10 12:52:03;;;;;;;2.60;1.52;;;;;;;26.36;47.39;93009.28;5052870;28;20693;-78
2021/08/10 12:54:50;;;;;;;2.30;1.45;;;;;;;26.13;49.80;93006.03;5054160;28;20029;-79
2021/08/10 12:57:21;;;;;;;6.25;1.75;;;;;;;26.23;48.29;93002.69;5038325;28;20033;-78
2021/08/10 12:59:50;;;;;;;2.45;1.42;;;;;;;26.36;49.02;92998.53;5034107;28;20033;-80
2021/08/10 13:02:40;;;;;;;1.83;1.42;;;;;;;25.87;47.74;92999.69;5034064;28;20060;-79
2021/08/10 13:05:18;;;;;;;5.05;2.15;;;;;;;26.04;48.14;92995.63;5034124;28;20536;-79
2021/08/10 13:08:00;;;;;;;3.10;1.55;;;;;;;25.54;48.14;92993.22;5051003;28;20498;-79
2021/08/10 13:10:31;;;;;;;4.30;2.10;;;;;;;26.16;47.57;92986.50;5053263;28;20543;-77
2021/08/10 13:13:00;;;;;;;2.50;1.58;;;;;;;26.53;45.09;92988.31;5053536;28;20097;-80
2021/08/10 13:15:26;;;;;;;4.10;1.88;;;;;;;26.92;44.95;92985.84;5054109;28;20021;-78
2021/08/10 13:17:52;;;;;;;3.97;2.28;;;;;;;26.46;45.96;92990.97;5016418;28;20495;-78
2021/08/10 13:20:26;;;;;;;1.80;1.40;;;;;;;26.48;46.57;92988.66;5015047;28;20037;-78
2021/08/10 13:23:00;;;;;;;3.67;1.90;;;;;;;26.50;46.65;92981.78;5015458;28;20042;-79
2021/08/10 13:25:28;;;;;;;2.55;1.52;;;;;;;25.81;47.45;92974.34;5015851;28;20072;-78
2021/08/10 13:28:12;;;;;;;1.85;1.30;;;;;;;26.35;47.79;92975.53;5035926;28;20486;-78
2021/08/10 13:30:38;;;;;;;3.75;2.00;;;;;;;26.50;47.48;92971.03;5035271;28;20063;-78
2021/08/10 13:33:18;;;;;;;2.58;1.50;;;;;;;26.81;47.39;92968.91;5053243;28;20039;-78
2021/08/10 13:35:44;;;;;;;4.95;1.48;;;;;;;26.70;48.13;92971.53;5052830;28;20041;-79
2021/08/10 13:38:11;;;;;;;2.60;1.63;;;;;;;26.47;46.92;92971.78;5050960;28;20517;-79
2021/08/10 13:40:37;;;;;;;2.65;1.48;;;;;;;26.50;46.93;92962.19;5034092;28;20048;-79